Time;durP1;ratioP1;P1;durP2;ratioP2;P2;SDS_P1;SDS_P2;PMS_P1;PMS_P2;Temp;Humidity;BMP_temperature;BMP_pressure;BME280_temperature;BME280_humidity;BME280_pressure;Samples;Min_cycle;Max_cycle;Signal;HPM_P1;HPM_P2
2023/04/04 00:00:32;;;;;;;1.63;1.00;;;1.00;99.90;;;;;;5037411;28;20192;-79
2023/04/04 00:02:58;;;;;;;5.20;1.20;;;0.90;99.90;;;;;;5035478;28;20196;-79
2023/04/04 00:05:24;;;;;;;2.03;1.23;;;0.90;99.90;;;;;;5038037;28;20670;-80
2023/04/04 00:07:49;;;;;;;4.83;1.30;;;0.90;99.90;;;;;;5036595;28;20602;-81
2023/04/04 00:10:15;;;;;;;1.90;1.03;;;0.90;99.90;;;;;;5038263;28;20172;-79
2023/04/04 00:12:41;;;;;;;4.37;1.10;;;0.80;99.90;;;;;;5036730;28;20258;-79
2023/04/04 00:15:08;;;;;;;3.57;1.20;;;0.80;99.90;;;;;;5037761;28;20255;-80
2023/04/04 00:17:33;;;;;;;1.57;0.97;;;0.80;99.90;;;;;;5036352;28;20208;-79
2023/04/04 00:19:59;;;;;;;4.73;1.27;;;0.80;99.90;;;;;;5037492;28;20207;-80
2023/04/04 00:22:24;;;;;;;5.93;1.70;;;0.80;99.90;;;;;;5034924;28;20196;-80
2023/04/04 00:24:50;;;;;;;2.33;1.20;;;0.80;99.90;;;;;;5035977;28;20211;-79
2023/04/04 00:27:16;;;;;;;1.10;0.90;;;0.70;99.90;;;;;;5037287;28;20218;-80
2023/04/04 00:29:41;;;;;;;3.03;1.27;;;0.70;99.90;;;;;;5035756;28;20172;-79
2023/04/04 00:32:07;;;;;;;2.60;1.00;;;0.70;99.90;;;;;;5035499;28;20680;-79
2023/04/04 00:34:32;;;;;;;4.27;1.30;;;0.70;99.90;;;;;;5037530;28;20172;-79
2023/04/04 00:36:58;;;;;;;2.70;1.27;;;0.60;99.90;;;;;;5037103;28;20176;-80
2023/04/04 00:39:25;;;;;;;1.73;1.23;;;0.60;99.90;;;;;;5037959;28;20169;-78
2023/04/04 00:41:51;;;;;;;1.60;1.03;;;0.60;99.90;;;;;;5035689;28;20220;-80
2023/04/04 00:44:17;;;;;;;1.43;1.13;;;0.60;99.90;;;;;;5035967;28;20223;-79
2023/04/04 00:46:43;;;;;;;2.03;1.23;;;0.60;99.90;;;;;;5035772;28;20629;-80
2023/04/04 00:49:08;;;;;;;1.33;0.97;;;0.60;99.90;;;;;;5037475;28;20234;-79
2023/04/04 00:51:34;;;;;;;2.20;1.30;;;0.50;99.90;;;;;;5037514;28;20203;-80
2023/04/04 00:54:00;;;;;;;3.93;1.40;;;0.50;99.90;;;;;;5037656;28;20191;-79
2023/04/04 00:56:27;;;;;;;2.13;1.03;;;0.50;99.90;;;;;;5035969;28;20180;-79
2023/04/04 00:58:54;;;;;;;4.73;1.43;;;0.50;99.90;;;;;;5037434;28;20173;-80
2023/04/04 01:01:20;;;;;;;4.17;1.37;;;0.40;99.90;;;;;;5036894;28;20196;-78
2023/04/04 01:03:45;;;;;;;2.53;1.43;;;0.40;99.90;;;;;;5037226;28;20196;-79
2023/04/04 01:06:12;;;;;;;1.47;1.07;;;0.40;99.90;;;;;;5037327;28;20177;-78
2023/04/04 01:08:38;;;;;;;2.30;1.07;;;0.30;99.90;;;;;;5037961;28;20203;-78
2023/04/04 01:11:05;;;;;;;5.07;1.40;;;0.30;99.90;;;;;;5040005;28;20592;-79
2023/04/04 01:13:31;;;;;;;6.23;1.57;;;0.30;99.90;;;;;;5039034;28;20203;-80
2023/04/04 01:15:56;;;;;;;2.57;1.30;;;0.30;99.90;;;;;;5040656;28;20183;-77
2023/04/04 01:18:24;;;;;;;4.20;1.13;;;0.30;99.90;;;;;;5039123;28;20171;-79
2023/04/04 01:20:52;;;;;;;1.93;1.00;;;0.30;99.90;;;;;;5040121;28;20192;-80
2023/04/04 01:23:19;;;;;;;1.73;1.33;;;0.20;99.90;;;;;;5038775;28;20265;-79
2023/04/04 01:25:46;;;;;;;4.80;1.60;;;0.20;99.90;;;;;;5041841;28;20164;-79
2023/04/04 01:28:12;;;;;;;2.50;1.50;;;0.20;99.90;;;;;;5040270;28;20164;-79
2023/04/04 01:30:38;;;;;;;3.47;1.43;;;0.20;99.90;;;;;;5038622;28;20184;-79
2023/04/04 01:33:30;;;;;;;3.57;1.40;;;0.20;99.90;;;;;;5039785;28;20210;-79
2023/04/04 01:36:23;;;;;;;2.70;1.43;;;0.10;99.90;;;;;;5038570;28;20172;-79
2023/04/04 01:38:56;;;;;;;5.17;1.40;;;0.10;99.90;;;;;;5037805;28;20272;-79
2023/04/04 01:41:23;;;;;;;5.93;1.30;;;0.00;99.90;;;;;;5037836;28;20200;-80
2023/04/04 01:43:50;;;;;;;3.67;1.30;;;0.00;99.90;;;;;;5039127;28;20192;-79
2023/04/04 01:46:16;;;;;;;9.13;1.33;;;-0.10;99.90;;;;;;5039535;28;20169;-78
2023/04/04 01:48:42;;;;;;;2.57;1.07;;;-0.10;99.90;;;;;;5037762;28;20168;-79
2023/04/04 01:51:08;;;;;;;6.20;1.50;;;0.00;99.90;;;;;;5039472;28;20609;-77
2023/04/04 01:53:33;;;;;;;6.43;1.63;;;-0.10;99.90;;;;;;5039220;28;20227;-79
2023/04/04 01:55:59;;;;;;;3.73;1.20;;;-0.10;99.90;;;;;;5038003;28;20303;-79
2023/04/04 01:58:25;;;;;;;2.13;1.30;;;-0.10;99.90;;;;;;5037694;28;20180;-79
2023/04/04 02:00:50;;;;;;;2.40;1.27;;;-0.10;99.90;;;;;;5037399;28;20216;-79
2023/04/04 02:03:16;;;;;;;4.37;1.03;;;-0.10;99.90;;;;;;5038521;28;20270;-77
2023/04/04 02:05:42;;;;;;;1.83;1.53;;;-0.20;99.90;;;;;;5037902;28;20180;-79
2023/04/04 02:08:08;;;;;;;3.73;1.03;;;-0.20;99.90;;;;;;5038822;28;20192;-78
2023/04/04 02:10:33;;;;;;;2.47;1.47;;;-0.20;99.90;;;;;;5038821;28;20242;-79
2023/04/04 02:12:59;;;;;;;3.83;1.10;;;-0.10;99.90;;;;;;5038907;28;20536;-78
2023/04/04 02:15:25;;;;;;;3.83;1.50;;;-0.20;99.90;;;;;;5039327;28;20176;-79
2023/04/04 02:17:51;;;;;;;2.03;1.17;;;-0.20;99.90;;;;;;5036984;28;20188;-79
2023/04/04 02:20:20;;;;;;;2.00;1.10;;;-0.20;99.90;;;;;;5036824;28;20211;-78
2023/04/04 02:22:55;;;;;;;3.63;1.60;;;-0.20;99.90;;;;;;5037907;28;20192;-79
2023/04/04 02:25:22;;;;;;;3.70;1.40;;;-0.20;99.90;;;;;;5036316;28;20179;-78
2023/04/04 02:27:47;;;;;;;2.20;1.23;;;-0.20;99.90;;;;;;5037910;28;20172;-79
2023/04/04 02:30:13;;;;;;;3.67;1.47;;;-0.20;99.90;;;;;;5036934;28;20183;-79
2023/04/04 02:32:39;;;;;;;1.73;1.23;;;-0.20;99.90;;;;;;5038307;28;20282;-77
2023/04/04 02:35:05;;;;;;;2.97;1.60;;;-0.30;99.90;;;;;;5036794;28;20611;-79
2023/04/04 02:37:31;;;;;;;3.63;1.50;;;-0.30;99.90;;;;;;5038586;28;20251;-79
2023/04/04 02:39:56;;;;;;;2.60;1.47;;;-0.30;99.90;;;;;;5036751;28;20227;-79
2023/04/04 02:42:22;;;;;;;3.23;1.73;;;-0.30;99.90;;;;;;5036999;28;20287;-79
2023/04/04 02:44:47;;;;;;;3.80;1.57;;;-0.30;99.90;;;;;;5036837;28;20200;-78
2023/04/04 02:47:13;;;;;;;3.33;1.83;;;-0.30;99.90;;;;;;5037277;28;20635;-79
2023/04/04 02:49:38;;;;;;;4.37;1.50;;;-0.30;99.90;;;;;;5037574;28;20283;-78
2023/04/04 02:52:04;;;;;;;2.77;1.57;;;-0.40;99.90;;;;;;5038776;28;20193;-79
2023/04/04 02:54:29;;;;;;;4.67;1.70;;;-0.40;99.90;;;;;;5041845;28;20237;-79
2023/04/04 02:56:55;;;;;;;6.17;2.10;;;-0.40;99.90;;;;;;5042433;28;20180;-79
2023/04/04 02:59:21;;;;;;;2.97;1.80;;;-0.50;99.90;;;;;;5038498;28;20482;-78
2023/04/04 03:01:46;;;;;;;3.13;1.73;;;-0.50;99.90;;;;;;5037760;28;20192;-79
2023/04/04 03:04:12;;;;;;;4.40;1.97;;;-0.50;99.90;;;;;;5036628;28;20172;-79
2023/04/04 03:06:39;;;;;;;2.53;1.60;;;-0.60;99.90;;;;;;5035975;28;20185;-79
2023/04/04 03:09:05;;;;;;;2.63;1.70;;;-0.60;99.90;;;;;;5035860;28;20172;-79
2023/04/04 03:11:31;;;;;;;3.47;1.77;;;-0.60;99.90;;;;;;5037314;28;20545;-78
2023/04/04 03:13:56;;;;;;;3.83;1.73;;;-0.60;99.90;;;;;;5037327;28;20181;-79
2023/04/04 03:16:22;;;;;;;3.53;1.70;;;-0.60;99.90;;;;;;5035845;28;20215;-79
2023/04/04 03:18:48;;;;;;;5.30;1.93;;;-0.60;99.90;;;;;;5035881;28;20278;-79
2023/04/04 03:21:13;;;;;;;7.77;2.10;;;-0.60;99.90;;;;;;5036968;28;20310;-78
2023/04/04 03:23:39;;;;;;;2.87;1.70;;;-0.60;99.90;;;;;;5037529;28;20196;-79
2023/04/04 03:26:05;;;;;;;3.60;1.73;;;-0.60;99.90;;;;;;5037423;28;20191;-79
2023/04/04 03:28:30;;;;;;;4.87;2.23;;;-0.70;99.90;;;;;;5035319;28;20259;-80
2023/04/04 03:30:56;;;;;;;3.40;1.87;;;-0.70;99.90;;;;;;5036968;28;20210;-78
2023/04/04 03:33:22;;;;;;;2.73;1.87;;;-0.70;99.90;;;;;;5037296;28;20681;-78
2023/04/04 03:35:47;;;;;;;4.23;2.03;;;-0.70;99.90;;;;;;5036792;28;20176;-78
2023/04/04 03:38:13;;;;;;;3.57;1.83;;;-0.70;99.90;;;;;;5035884;28;20545;-79
2023/04/04 03:40:40;;;;;;;3.07;1.90;;;-0.70;99.90;;;;;;5036785;28;20594;-78
2023/04/04 03:43:06;;;;;;;6.20;1.97;;;-0.70;99.90;;;;;;5035609;28;20291;-78
2023/04/04 03:45:35;;;;;;;8.20;2.10;;;-0.70;99.90;;;;;;5035341;28;20548;-79
2023/04/04 03:48:01;;;;;;;2.97;1.67;;;-0.80;99.90;;;;;;5036752;28;20191;-79
2023/04/04 03:50:26;;;;;;;4.77;2.07;;;-0.80;99.90;;;;;;5036906;28;20169;-78
2023/04/04 03:52:52;;;;;;;4.67;1.63;;;-0.80;99.90;;;;;;5034753;28;20192;-78
2023/04/04 03:55:17;;;;;;;4.40;1.80;;;-0.70;99.90;;;;;;5036036;28;20182;-78
2023/04/04 03:57:43;;;;;;;4.27;1.83;;;-0.70;99.90;;;;;;5035847;28;20176;-79
2023/04/04 04:00:09;;;;;;;6.97;1.87;;;-0.70;99.90;;;;;;5035442;28;20282;-78
2023/04/04 04:02:35;;;;;;;2.00;1.60;;;-0.80;99.90;;;;;;5036053;28;20195;-79
2023/04/04 04:05:01;;;;;;;3.27;1.57;;;-0.80;99.90;;;;;;5033945;28;20527;-79
2023/04/04 04:07:26;;;;;;;2.43;1.37;;;-0.80;99.90;;;;;;5034599;28;20592;-79
2023/04/04 04:09:52;;;;;;;5.80;2.00;;;-0.80;99.90;;;;;;5036193;28;20594;-78
2023/04/04 04:12:18;;;;;;;3.37;1.67;;;-0.80;99.90;;;;;;5035576;28;20211;-79
2023/04/04 04:14:43;;;;;;;4.23;1.83;;;-0.80;99.90;;;;;;5036418;28;20180;-78
2023/04/04 04:17:09;;;;;;;3.40;1.80;;;-0.80;99.90;;;;;;5035390;28;20186;-78
2023/04/04 04:19:34;;;;;;;2.60;2.10;;;-0.90;99.90;;;;;;5034907;28;20652;-79
2023/04/04 04:22:00;;;;;;;2.73;1.83;;;-0.90;99.90;;;;;;5037162;28;20202;-79
2023/04/04 04:24:25;;;;;;;3.23;2.10;;;-0.90;99.90;;;;;;5036706;28;20172;-79
2023/04/04 04:26:51;;;;;;;2.60;1.83;;;-0.90;99.90;;;;;;5036781;28;20175;-78
2023/04/04 04:29:16;;;;;;;5.13;2.40;;;-0.90;99.90;;;;;;5036166;28;20655;-79
2023/04/04 04:31:42;;;;;;;3.63;2.20;;;-0.90;99.90;;;;;;5036295;28;20230;-79
2023/04/04 04:34:08;;;;;;;4.63;1.63;;;-0.90;99.90;;;;;;5036792;28;20178;-80
2023/04/04 04:36:34;;;;;;;4.23;1.90;;;-0.90;99.90;;;;;;5034870;28;20184;-78
2023/04/04 04:39:00;;;;;;;4.87;2.10;;;-1.00;99.90;;;;;;5035896;28;20195;-78
2023/04/04 04:41:26;;;;;;;2.73;1.70;;;-1.00;99.90;;;;;;5034625;28;20698;-79
2023/04/04 04:43:52;;;;;;;3.73;1.83;;;-1.00;99.90;;;;;;5037836;28;20165;-79
2023/04/04 04:46:17;;;;;;;4.53;2.07;;;-1.00;99.90;;;;;;5040322;28;20251;-79
2023/04/04 04:48:43;;;;;;;2.87;2.07;;;-1.00;99.90;;;;;;5039402;28;20674;-77
2023/04/04 04:51:09;;;;;;;4.73;1.70;;;-1.10;99.90;;;;;;5040182;28;20182;-79
2023/04/04 04:53:35;;;;;;;3.57;2.30;;;-1.00;99.90;;;;;;5040786;28;20566;-79
2023/04/04 04:56:00;;;;;;;2.63;1.83;;;-1.10;99.90;;;;;;5039004;28;20180;-79
2023/04/04 04:58:26;;;;;;;4.80;2.13;;;-1.00;99.90;;;;;;5040302;28;20261;-78
2023/04/04 05:00:58;;;;;;;4.93;2.20;;;-1.00;99.90;;;;;;5038153;28;20215;-78
2023/04/04 05:03:24;;;;;;;3.83;1.90;;;-1.10;99.90;;;;;;5041699;28;20222;-78
2023/04/04 05:05:50;;;;;;;3.73;2.10;;;-1.10;99.90;;;;;;5042287;28;20585;-78
2023/04/04 05:08:15;;;;;;;3.57;1.70;;;-1.10;99.90;;;;;;5042800;28;20187;-78
2023/04/04 05:10:41;;;;;;;2.10;1.70;;;-1.10;99.90;;;;;;5042251;28;20199;-78
2023/04/04 05:13:06;;;;;;;6.03;2.63;;;-1.10;99.90;;;;;;5042381;28;20207;-78
2023/04/04 05:15:32;;;;;;;3.97;2.20;;;-1.10;99.90;;;;;;5041822;28;20176;-78
2023/04/04 05:17:58;;;;;;;3.87;1.90;;;-1.10;99.90;;;;;;5041006;28;20180;-78
2023/04/04 05:20:23;;;;;;;5.40;2.40;;;-1.10;99.90;;;;;;5040987;28;20223;-78
2023/04/04 05:22:49;;;;;;;2.67;2.00;;;-1.10;99.90;;;;;;5042010;28;20198;-77
2023/04/04 05:25:15;;;;;;;3.37;1.83;;;-1.10;99.90;;;;;;5038221;28;20208;-77
2023/04/04 05:27:41;;;;;;;3.97;2.40;;;-1.10;99.90;;;;;;5038782;28;20184;-77
2023/04/04 05:30:08;;;;;;;3.97;1.97;;;-1.10;99.90;;;;;;5038189;28;20172;-79
2023/04/04 05:32:33;;;;;;;3.83;2.40;;;-1.10;99.90;;;;;;5040444;28;20677;-77
2023/04/04 05:34:59;;;;;;;4.73;2.13;;;-1.10;99.90;;;;;;5039522;28;20180;-78
2023/04/04 05:37:25;;;;;;;7.70;2.27;;;-1.10;99.90;;;;;;5041966;28;20210;-78
2023/04/04 05:39:50;;;;;;;5.17;2.13;;;-1.10;99.90;;;;;;5041990;28;20203;-78
2023/04/04 05:42:16;;;;;;;3.23;1.97;;;-1.10;99.90;;;;;;5040189;28;20205;-78
2023/04/04 05:44:42;;;;;;;11.00;2.93;;;-1.10;99.90;;;;;;5040125;28;20241;-78
2023/04/04 05:47:07;;;;;;;4.63;2.07;;;-1.10;99.90;;;;;;5041973;28;20334;-78
2023/04/04 05:49:33;;;;;;;5.20;2.57;;;-1.10;99.90;;;;;;5040519;28;20711;-77
2023/04/04 05:51:58;;;;;;;5.43;2.50;;;-1.10;99.90;;;;;;5040429;28;20211;-78
2023/04/04 05:54:24;;;;;;;6.97;2.80;;;-1.10;99.90;;;;;;5040078;28;20275;-78
2023/04/04 05:56:49;;;;;;;3.50;2.20;;;-1.10;99.90;;;;;;5040657;28;20175;-78
2023/04/04 05:59:15;;;;;;;4.67;2.27;;;-1.10;99.90;;;;;;5039162;28;20180;-78
2023/04/04 06:01:40;;;;;;;3.70;2.20;;;-1.00;99.90;;;;;;5037086;28;20202;-77
2023/04/04 06:04:06;;;;;;;3.80;2.27;;;-1.00;99.90;;;;;;5039076;28;20176;-78
2023/04/04 06:06:33;;;;;;;4.03;2.27;;;-1.00;99.90;;;;;;5037241;28;20241;-77
2023/04/04 06:08:58;;;;;;;4.00;2.73;;;-1.00;99.90;;;;;;5039367;28;20180;-78
2023/04/04 06:11:25;;;;;;;2.63;2.07;;;-1.00;99.90;;;;;;5040006;28;20205;-78
2023/04/04 06:13:51;;;;;;;5.10;2.47;;;-1.00;99.90;;;;;;5040031;28;20173;-78
2023/04/04 06:16:17;;;;;;;6.53;2.70;;;-1.00;99.90;;;;;;5038537;28;20190;-77
2023/04/04 06:18:42;;;;;;;7.40;2.77;;;-0.90;99.90;;;;;;5039663;28;20250;-78
2023/04/04 06:21:08;;;;;;;5.90;2.63;;;-0.90;99.90;;;;;;5039510;28;20268;-78
2023/04/04 06:23:36;;;;;;;3.27;2.67;;;-0.80;99.90;;;;;;5040506;28;20188;-78
2023/04/04 06:26:02;;;;;;;5.30;2.43;;;-0.70;99.90;;;;;;5038945;28;20183;-78
2023/04/04 06:28:27;;;;;;;5.83;2.70;;;-0.70;99.90;;;;;;5039704;28;20168;-77
2023/04/04 06:30:53;;;;;;;6.57;2.97;;;-0.60;99.90;;;;;;5039140;28;20196;-78
2023/04/04 06:33:18;;;;;;;8.13;3.00;;;-0.60;99.90;;;;;;5040300;28;20283;-78
2023/04/04 06:35:44;;;;;;;14.27;3.10;;;-0.60;99.90;;;;;;5039482;28;20255;-78
2023/04/04 06:38:09;;;;;;;4.63;2.47;;;-0.50;99.90;;;;;;5037123;28;20263;-77
2023/04/04 06:40:35;;;;;;;4.03;2.57;;;-0.50;99.90;;;;;;5034580;28;20196;-77
2023/04/04 06:43:01;;;;;;;4.80;2.77;;;-0.40;99.90;;;;;;5034137;28;20188;-77
2023/04/04 06:45:27;;;;;;;6.00;2.50;;;-0.30;99.90;;;;;;5039846;28;20182;-78
2023/04/04 06:47:53;;;;;;;3.07;2.07;;;-0.20;99.90;;;;;;5045152;28;20168;-79
2023/04/04 06:50:21;;;;;;;9.53;3.17;;;-0.20;99.90;;;;;;5045779;28;20199;-78
2023/04/04 06:52:47;;;;;;;6.10;3.07;;;-0.10;99.90;;;;;;5045570;28;20196;-79
2023/04/04 06:55:12;;;;;;;5.30;3.23;;;0.00;99.90;;;;;;5045565;28;20176;-79
2023/04/04 06:57:38;;;;;;;9.73;3.90;;;0.10;99.90;;;;;;5045937;28;20183;-79
2023/04/04 07:00:04;;;;;;;5.67;3.43;;;0.10;99.90;;;;;;5045350;28;20204;-79
2023/04/04 07:02:30;;;;;;;6.97;3.73;;;0.20;99.90;;;;;;5045166;28;20195;-79
2023/04/04 07:04:55;;;;;;;7.33;3.90;;;0.30;99.90;;;;;;5044921;28;20177;-78
2023/04/04 07:07:21;;;;;;;10.80;4.00;;;0.40;99.90;;;;;;5043399;28;20557;-79
2023/04/04 07:09:47;;;;;;;7.00;4.03;;;0.50;99.90;;;;;;5042724;28;20188;-79
2023/04/04 07:12:12;;;;;;;5.10;3.70;;;0.60;99.90;;;;;;5044819;28;20617;-78
2023/04/04 07:14:38;;;;;;;5.23;4.07;;;0.70;99.90;;;;;;5043295;28;20184;-79
2023/04/04 07:17:03;;;;;;;6.47;4.00;;;0.80;99.90;;;;;;5043674;28;20225;-79
2023/04/04 07:19:29;;;;;;;7.53;4.10;;;0.90;99.90;;;;;;5044759;28;20184;-79
2023/04/04 07:21:55;;;;;;;6.47;3.60;;;1.00;99.90;;;;;;5041519;28;20203;-79
2023/04/04 07:24:21;;;;;;;6.10;4.13;;;1.10;99.90;;;;;;5042421;28;20659;-78
2023/04/04 07:26:46;;;;;;;9.87;4.23;;;1.20;99.90;;;;;;5041839;28;20177;-79
2023/04/04 07:29:12;;;;;;;5.07;3.20;;;1.30;99.90;;;;;;5041384;28;20180;-79
2023/04/04 07:31:38;;;;;;;4.50;2.67;;;1.40;99.90;;;;;;5042963;28;20259;-79
2023/04/04 07:34:04;;;;;;;6.07;2.93;;;1.50;99.90;;;;;;5043031;28;20591;-79
2023/04/04 07:36:30;;;;;;;6.17;3.13;;;1.60;99.90;;;;;;5042908;28;20255;-78
2023/04/04 07:38:56;;;;;;;4.63;2.73;;;1.80;99.90;;;;;;5042428;28;20566;-79
2023/04/04 07:41:21;;;;;;;5.90;2.57;;;1.90;99.90;;;;;;5041128;28;20256;-79
2023/04/04 07:43:47;;;;;;;4.83;2.27;;;2.00;99.90;;;;;;5041195;28;20196;-79
2023/04/04 07:46:13;;;;;;;5.20;2.40;;;2.10;99.90;;;;;;5041788;28;20204;-79
2023/04/04 07:48:39;;;;;;;4.20;1.97;;;2.20;99.90;;;;;;5039328;28;20184;-79
2023/04/04 07:51:05;;;;;;;2.73;1.90;;;2.30;99.90;;;;;;5041875;28;20260;-79
2023/04/04 07:53:31;;;;;;;2.20;1.40;;;2.40;99.90;;;;;;5042121;28;20199;-79
2023/04/04 07:55:57;;;;;;;4.50;1.70;;;2.50;99.90;;;;;;5039703;28;20191;-79
2023/04/04 07:58:22;;;;;;;4.23;2.07;;;2.60;99.90;;;;;;5040440;28;20181;-79
2023/04/04 08:00:48;;;;;;;3.53;1.60;;;2.80;99.90;;;;;;5042477;28;20234;-80
2023/04/04 08:03:13;;;;;;;3.47;1.03;;;2.90;99.90;;;;;;5039650;28;20265;-80
2023/04/04 08:05:41;;;;;;;3.40;1.60;;;2.90;99.90;;;;;;5041485;28;20305;-79
2023/04/04 08:08:06;;;;;;;3.57;1.83;;;3.00;99.90;;;;;;5040539;28;20612;-79
2023/04/04 08:10:32;;;;;;;2.80;1.77;;;3.10;99.90;;;;;;5038758;28;20184;-78
2023/04/04 08:12:58;;;;;;;3.80;1.67;;;3.20;99.90;;;;;;5039486;28;20275;-79
2023/04/04 08:15:23;;;;;;;2.97;1.47;;;3.30;99.90;;;;;;5041489;28;20182;-80
2023/04/04 08:17:49;;;;;;;3.50;1.30;;;3.40;99.90;;;;;;5039830;28;20183;-80
2023/04/04 08:20:14;;;;;;;3.70;1.40;;;3.50;99.90;;;;;;5044557;28;20200;-81
2023/04/04 08:22:41;;;;;;;6.17;1.40;;;3.60;99.90;;;;;;5045733;28;20199;-80
2023/04/04 08:25:08;;;;;;;2.23;1.07;;;3.70;99.90;;;;;;5043234;28;20172;-80
2023/04/04 08:27:34;;;;;;;5.33;1.37;;;3.60;99.90;;;;;;5045486;28;20175;-80
2023/04/04 08:30:02;;;;;;;2.93;1.23;;;3.80;99.90;;;;;;5040317;28;20176;-78
2023/04/04 08:32:27;;;;;;;5.87;1.40;;;3.90;99.90;;;;;;5036412;28;20192;-77
2023/04/04 08:34:53;;;;;;;2.70;1.40;;;4.00;96.40;;;;;;5037680;28;20203;-78
2023/04/04 08:37:18;;;;;;;2.83;1.70;;;4.00;99.90;;;;;;5037729;28;20245;-78
2023/04/04 08:39:44;;;;;;;4.20;1.50;;;4.10;99.90;;;;;;5037674;28;20252;-78
2023/04/04 08:42:11;;;;;;;4.40;1.60;;;4.30;90.80;;;;;;5035433;28;20681;-77
2023/04/04 08:44:40;;;;;;;2.27;1.53;;;4.30;99.90;;;;;;5037382;28;20263;-78
2023/04/04 08:47:08;;;;;;;2.27;1.27;;;4.40;76.30;;;;;;5037096;28;20201;-78
2023/04/04 08:49:45;;;;;;;1.57;1.20;;;4.50;61.70;;;;;;5038863;28;20659;-79
2023/04/04 08:52:18;;;;;;;3.03;1.33;;;4.60;72.10;;;;;;5041632;28;20184;-79
2023/04/04 08:54:45;;;;;;;3.07;1.43;;;4.70;55.30;;;;;;5038409;28;20165;-79
2023/04/04 08:57:10;;;;;;;4.47;1.20;;;4.80;48.00;;;;;;5038410;28;20192;-79
2023/04/04 08:59:36;;;;;;;2.43;1.20;;;4.80;43.80;;;;;;5037036;28;20209;-80
2023/04/04 09:02:08;;;;;;;1.83;1.40;;;4.90;57.70;;;;;;5038198;28;20185;-79
2023/04/04 09:04:34;;;;;;;3.43;1.37;;;4.90;88.70;;;;;;5038362;28;20589;-79
2023/04/04 09:07:02;;;;;;;1.80;1.20;;;5.00;56.20;;;;;;5036545;28;20176;-79
2023/04/04 09:09:29;;;;;;;3.37;1.37;;;5.10;78.50;;;;;;5034841;28;20558;-81
2023/04/04 09:11:54;;;;;;;2.53;1.50;;;5.10;63.20;;;;;;5037440;28;20227;-80
2023/04/04 09:14:20;;;;;;;1.43;1.23;;;5.10;19.70;;;;;;5037862;28;20636;-79
2023/04/04 09:16:46;;;;;;;4.47;1.70;;;5.20;54.50;;;;;;5037725;28;20191;-79
2023/04/04 09:19:11;;;;;;;3.40;1.60;;;5.20;67.30;;;;;;5038074;28;20177;-80
2023/04/04 09:21:38;;;;;;;3.03;1.40;;;5.30;38.70;;;;;;5036305;28;20203;-80
2023/04/04 09:24:04;;;;;;;4.33;1.40;;;5.40;40.30;;;;;;5035702;28;20207;-80
2023/04/04 09:26:50;;;;;;;3.67;1.57;;;5.40;1.00;;;;;;5037256;28;20160;-79
2023/04/04 09:29:20;;;;;;;2.90;1.57;;;5.50;25.30;;;;;;5036836;28;20199;-80
2023/04/04 09:31:49;;;;;;;4.33;1.67;;;5.50;24.40;;;;;;5035892;28;20287;-80
2023/04/04 09:34:17;;;;;;;1.70;1.27;;;5.60;29.70;;;;;;5036676;28;20176;-80
2023/04/04 09:36:47;;;;;;;3.73;2.13;;;5.60;32.80;;;;;;5035463;28;20529;-80
2023/04/04 09:39:15;;;;;;;4.77;1.83;;;5.70;21.30;;;;;;5035554;28;20660;-80
2023/04/04 09:41:42;;;;;;;2.20;1.80;;;5.80;1.00;;;;;;5036649;28;20706;-80
2023/04/04 09:44:11;;;;;;;5.67;1.83;;;5.90;4.70;;;;;;5035863;28;20179;-79
2023/04/04 09:46:37;;;;;;;3.53;1.80;;;5.90;44.20;;;;;;5036553;28;20169;-80
2023/04/04 09:49:03;;;;;;;3.50;2.30;;;5.90;1.00;;;;;;5036562;28;20168;-80
2023/04/04 09:51:37;;;;;;;4.50;2.37;;;5.90;9.40;;;;;;5035355;28;20194;-80
2023/04/04 09:54:05;;;;;;;5.23;2.00;;;6.00;2.40;;;;;;5036323;28;20239;-80
2023/04/04 09:56:32;;;;;;;6.23;1.90;;;6.00;16.00;;;;;;5036301;28;20168;-80
2023/04/04 09:59:00;;;;;;;3.03;1.63;;;6.00;1.00;;;;;;5036703;28;20172;-80
2023/04/04 10:01:27;;;;;;;4.93;1.90;;;6.10;4.80;;;;;;5035147;28;20292;-81
2023/04/04 10:03:53;;;;;;;6.53;1.70;;;6.20;1.00;;;;;;5035028;28;20176;-80
2023/04/04 10:06:20;;;;;;;2.87;1.77;;;6.20;1.00;;;;;;5036449;28;20486;-79
2023/04/04 10:08:47;;;;;;;2.40;1.40;;;6.20;1.00;;;;;;5036617;28;20165;-80
2023/04/04 10:11:12;;;;;;;6.87;1.60;;;6.30;1.00;;;;;;5000299;28;1042107;-80
2023/04/04 10:13:43;;;;;;;3.53;1.93;;;6.40;1.00;;;;;;5037219;28;20208;-79
2023/04/04 10:16:09;;;;;;;4.43;1.47;;;6.40;1.00;;;;;;5036577;28;20182;-80
2023/04/04 10:18:35;;;;;;;3.77;1.47;;;6.50;1.00;;;;;;5037480;28;20172;-80
2023/04/04 10:21:07;;;;;;;6.43;1.70;;;6.60;1.00;;;;;;5035718;28;20299;-80
2023/04/04 10:23:34;;;;;;;4.20;1.80;;;6.60;1.00;;;;;;5037347;28;20580;-80
2023/04/04 10:26:00;;;;;;;2.47;1.50;;;6.70;1.00;;;;;;5035825;28;20177;-80
2023/04/04 10:28:27;;;;;;;3.60;1.70;;;6.80;1.00;;;;;;5037188;28;20180;-80
2023/04/04 10:31:14;;;;;;;4.93;1.80;;;6.80;1.00;;;;;;5035828;28;20186;-80
2023/04/04 10:33:48;;;;;;;5.10;1.93;;;6.80;1.00;;;;;;5037506;28;20200;-80
2023/04/04 10:36:22;;;;;;;4.03;1.67;;;6.90;1.00;;;;;;5036192;28;20176;-80
2023/04/04 10:38:58;;;;;;;4.43;1.60;;;7.00;1.00;;;;;;5036971;28;20160;-80
2023/04/04 10:41:28;;;;;;;3.83;1.80;;;7.10;1.00;;;;;;5037211;28;20249;-81
2023/04/04 10:43:58;;;;;;;2.87;1.50;;;7.20;1.00;;;;;;5035492;28;20628;-80
2023/04/04 10:46:29;;;;;;;4.90;1.50;;;7.20;1.00;;;;;;5035753;28;20184;-79
2023/04/04 10:48:56;;;;;;;5.83;1.77;;;7.20;1.00;;;;;;5036473;28;20171;-80
2023/04/04 10:51:22;;;;;;;3.90;1.47;;;7.20;99.90;;;;;;5036818;28;20187;-80
2023/04/04 10:53:48;;;;;;;3.97;2.13;;;7.30;99.90;;;;;;5037350;28;20259;-81
2023/04/04 10:56:15;;;;;;;3.57;1.70;;;7.30;1.00;;;;;;5036842;28;20188;-80
2023/04/04 10:58:40;;;;;;;3.07;1.27;;;7.30;99.90;;;;;;5035726;28;20183;-80
2023/04/04 11:01:08;;;;;;;4.80;1.60;;;7.40;1.00;;;;;;5037063;28;20621;-80
2023/04/04 11:04:12;;;;;;;4.57;1.77;;;7.40;1.00;;;;;;5034697;28;20198;-80
2023/04/04 11:07:05;;;;;;;4.10;1.80;;;7.40;99.90;;;;;;5037401;28;20600;-79
2023/04/04 11:09:53;;;;;;;3.17;1.43;;;7.50;1.00;;;;;;5036312;28;20194;-80
2023/04/04 11:12:37;;;;;;;4.43;1.50;;;7.60;99.90;;;;;;5036445;28;20253;-80
2023/04/04 11:15:03;;;;;;;2.03;1.40;;;7.70;1.00;;;;;;5036614;28;20711;-80
2023/04/04 11:17:48;;;;;;;2.40;1.20;;;7.70;99.90;;;;;;5035133;28;20216;-79
2023/04/04 11:20:31;;;;;;;5.03;1.43;;;7.70;99.90;;;;;;5035005;28;20207;-80
2023/04/04 11:23:07;;;;;;;3.30;1.50;;;7.80;1.00;;;;;;5036839;28;20267;-80
2023/04/04 11:25:36;;;;;;;3.73;1.80;;;7.80;99.90;;;;;;5036511;28;20168;-80
2023/04/04 11:28:06;;;;;;;4.40;1.80;;;7.70;99.90;;;;;;5039936;28;20164;-79
2023/04/04 11:30:42;;;;;;;4.83;1.40;;;7.80;99.90;;;;;;5046421;28;20505;-81
2023/04/04 11:33:08;;;;;;;2.53;1.50;;;7.90;1.00;;;;;;5038587;28;20191;-81
2023/04/04 11:35:38;;;;;;;3.03;1.40;;;7.90;99.90;;;;;;5035928;28;20176;-79
2023/04/04 11:38:12;;;;;;;4.40;1.40;;;8.00;1.00;;;;;;5041288;28;20173;-83
2023/04/04 11:40:40;;;;;;;4.87;2.43;;;8.00;99.90;;;;;;5043879;28;20203;-80
2023/04/04 11:43:14;;;;;;;4.57;1.40;;;8.00;1.00;;;;;;5041556;28;20247;-80
2023/04/04 11:45:44;;;;;;;2.90;1.60;;;8.10;1.00;;;;;;5041481;28;20243;-80
2023/04/04 11:48:09;;;;;;;3.67;1.43;;;8.10;1.00;;;;;;5042695;28;20647;-78
2023/04/04 11:50:39;;;;;;;4.60;1.80;;;8.00;1.00;;;;;;5042371;28;20202;-79
2023/04/04 11:53:07;;;;;;;2.90;1.40;;;8.00;1.00;;;;;;5043412;28;20192;-79
2023/04/04 11:55:38;;;;;;;3.10;1.50;;;8.00;1.00;;;;;;5041914;28;20187;-82
2023/04/04 11:58:11;;;;;;;5.73;1.60;;;8.10;1.00;;;;;;5042597;28;20168;-80
2023/04/04 12:00:38;;;;;;;4.30;1.70;;;8.10;1.00;;;;;;5040294;28;20198;-80
2023/04/04 12:03:10;;;;;;;3.10;1.67;;;8.30;1.00;;;;;;5040141;28;20203;-80
2023/04/04 12:05:37;;;;;;;6.53;1.73;;;8.40;99.90;;;;;;5042060;28;20248;-83
2023/04/04 12:08:03;;;;;;;3.87;1.70;;;8.40;99.90;;;;;;5040245;28;20169;-80
2023/04/04 12:10:39;;;;;;;3.17;1.90;;;8.40;99.90;;;;;;5039674;28;20176;-80
2023/04/04 12:13:07;;;;;;;4.07;1.77;;;8.40;99.90;;;;;;5038842;28;20294;-81
2023/04/04 12:15:34;;;;;;;2.33;1.43;;;8.50;99.90;;;;;;5040903;28;20190;-80
2023/04/04 12:18:01;;;;;;;3.43;1.60;;;8.50;99.90;;;;;;5038948;28;20230;-80
2023/04/04 12:20:26;;;;;;;4.30;2.20;;;8.60;1.00;;;;;;5039070;28;20246;-80
2023/04/04 12:22:52;;;;;;;3.53;1.87;;;8.50;99.90;;;;;;5037272;28;20614;-80
2023/04/04 12:25:21;;;;;;;2.87;1.67;;;8.60;99.90;;;;;;5037231;28;20289;-80
2023/04/04 12:27:48;;;;;;;2.33;1.77;;;8.60;99.90;;;;;;5038947;28;20172;-80
2023/04/04 12:30:14;;;;;;;5.40;1.77;;;8.70;1.00;;;;;;5036694;28;20179;-79
2023/04/04 12:32:46;;;;;;;4.23;1.57;;;8.70;99.90;;;;;;5038087;28;20196;-80
2023/04/04 12:35:12;;;;;;;4.60;1.90;;;8.70;1.00;;;;;;5037473;28;20164;-80
2023/04/04 12:37:39;;;;;;;3.10;2.00;;;8.70;1.00;;;;;;5038213;28;20164;-80
2023/04/04 12:40:06;;;;;;;3.77;1.77;;;8.80;99.90;;;;;;5038405;28;20200;-80
2023/04/04 12:42:34;;;;;;;6.57;2.03;;;8.80;1.00;;;;;;5036446;28;20254;-80
2023/04/04 12:45:02;;;;;;;3.63;1.77;;;8.90;99.90;;;;;;5037404;28;20240;-79
2023/04/04 12:47:30;;;;;;;4.20;1.80;;;8.90;1.00;;;;;;5037465;28;20187;-80
2023/04/04 12:49:55;;;;;;;3.77;1.90;;;8.90;99.90;;;;;;5039389;28;20168;-80
2023/04/04 12:52:26;;;;;;;3.20;1.80;;;8.90;1.00;;;;;;5039670;28;20223;-80
2023/04/04 12:54:52;;;;;;;4.03;2.13;;;8.90;99.90;;;;;;5039371;28;20169;-80